Time,TemperatureF,DewpointF,PressureIn,WindDirection,WindDirectionDegrees,WindSpeedMPH,WindSpeedGustMPH,Humidity,HourlyPrecipIn,Conditions,Clouds,dailyrainin,SolarRadiationWatts/m^2,SoftwareType,DateUTC
2013-10-06 00:23:00,69.0,26.0,-100.00,West,275,7.0,11.0,20,0.00,,,0.00,461.000000,,2013-10-06 00:23:00,
2013-10-06 00:32:00,69.0,26.0,-100.00,West,275,7.0,11.0,20,0.00,,,0.00,461.000000,,2013-10-06 00:32:00,
2013-10-06 00:43:00,69.0,26.0,-100.00,West,275,7.0,11.0,20,0.00,,,0.00,461.000000,,2013-10-06 00:43:00,
2013-10-06 00:52:00,69.0,26.0,-100.00,West,275,7.0,11.0,20,0.00,,,0.00,461.000000,,2013-10-06 00:52:00,
2013-10-06 01:22:00,65.0,23.0,-100.00,WSW,251,5.0,10.0,20,0.00,,,0.00,251.000000,,2013-10-06 01:22:00,
2013-10-06 01:32:00,65.0,23.0,-100.00,WSW,251,5.0,10.0,20,0.00,,,0.00,251.000000,,2013-10-06 01:32:00,
2013-10-06 01:42:00,65.0,23.0,-100.00,WSW,251,5.0,10.0,20,0.00,,,0.00,251.000000,,2013-10-06 01:42:00,
2013-10-06 02:22:00,58.0,23.0,-100.00,WNW,290,3.0,5.0,26,0.00,,,0.00,50.000000,,2013-10-06 02:22:00,
2013-10-06 02:32:00,58.0,23.0,-100.00,WNW,290,3.0,5.0,26,0.00,,,0.00,50.000000,,2013-10-06 02:32:00,
2013-10-06 03:22:00,54.0,23.0,-100.00,NNE,19,0.0,3.0,30,0.00,,,0.00,0.000000,,2013-10-06 03:22:00,
2013-10-06 03:34:00,54.0,23.0,-100.00,NNE,19,0.0,3.0,30,0.00,,,0.00,0.000000,,2013-10-06 03:34:00,
2013-10-06 03:54:00,54.0,23.0,-100.00,NNE,19,0.0,3.0,30,0.00,,,0.00,0.000000,,2013-10-06 03:54:00,
2013-10-06 04:24:00,51.0,29.0,-100.00,ESE,109,3.0,4.0,42,0.00,,,0.00,0.000000,,2013-10-06 04:24:00,
2013-10-06 04:34:00,51.0,29.0,-100.00,ESE,109,3.0,4.0,42,0.00,,,0.00,0.000000,,2013-10-06 04:34:00,
2013-10-06 04:44:00,51.0,29.0,-100.00,ESE,109,3.0,4.0,42,0.00,,,0.00,0.000000,,2013-10-06 04:44:00,
2013-10-06 04:54:00,51.0,29.0,-100.00,ESE,109,3.0,4.0,42,0.00,,,0.00,0.000000,,2013-10-06 04:54:00,
2013-10-06 05:22:00,46.0,28.0,-100.00,East,84,4.0,6.0,49,0.00,,,0.00,0.000000,,2013-10-06 05:22:00,
2013-10-06 05:33:00,46.0,28.0,-100.00,East,84,4.0,6.0,49,0.00,,,0.00,0.000000,,2013-10-06 05:33:00,
2013-10-06 05:42:00,46.0,28.0,-100.00,East,84,4.0,6.0,49,0.00,,,0.00,0.000000,,2013-10-06 05:42:00,
2013-10-06 05:52:00,46.0,28.0,-100.00,East,84,4.0,6.0,49,0.00,,,0.00,0.000000,,2013-10-06 05:52:00,
2013-10-06 06:22:00,42.0,27.0,-100.00,East,86,4.0,6.0,54,0.00,,,0.00,0.000000,,2013-10-06 06:22:00,
2013-10-06 06:32:00,42.0,27.0,-100.00,East,86,4.0,6.0,54,0.00,,,0.00,0.000000,,2013-10-06 06:32:00,
2013-10-06 06:42:00,42.0,27.0,-100.00,East,86,4.0,6.0,54,0.00,,,0.00,0.000000,,2013-10-06 06:42:00,
2013-10-06 06:52:00,42.0,27.0,-100.00,East,86,4.0,6.0,54,0.00,,,0.00,0.000000,,2013-10-06 06:52:00,
2013-10-06 07:22:00,42.0,27.0,-100.00,ENE,61,6.0,7.0,54,0.00,,,0.00,0.000000,,2013-10-06 07:22:00,
2013-10-06 07:32:00,42.0,27.0,-100.00,ENE,61,6.0,7.0,54,0.00,,,0.00,0.000000,,2013-10-06 07:32:00,
2013-10-06 07:42:00,42.0,27.0,-100.00,ENE,61,6.0,7.0,54,0.00,,,0.00,0.000000,,2013-10-06 07:42:00,
2013-10-06 07:52:00,42.0,27.0,-100.00,ENE,61,6.0,7.0,54,0.00,,,0.00,0.000000,,2013-10-06 07:52:00,
2013-10-06 08:22:00,38.0,25.0,-100.00,ENE,62,7.0,9.0,60,0.00,,,0.00,0.000000,,2013-10-06 08:22:00,
2013-10-06 08:32:00,38.0,25.0,-100.00,ENE,62,7.0,9.0,60,0.00,,,0.00,0.000000,,2013-10-06 08:32:00,
2013-10-06 08:42:00,38.0,25.0,-100.00,ENE,62,7.0,9.0,60,0.00,,,0.00,0.000000,,2013-10-06 08:42:00,
2013-10-06 08:52:00,38.0,25.0,-100.00,ENE,62,7.0,9.0,60,0.00,,,0.00,0.000000,,2013-10-06 08:52:00,
2013-10-06 09:22:00,36.0,25.0,-100.00,ENE,62,6.0,9.0,65,0.00,,,-99.99,0.000000,,2013-10-06 09:22:00,
2013-10-06 09:33:00,36.0,25.0,-100.00,ENE,62,6.0,9.0,65,0.00,,,-99.99,0.000000,,2013-10-06 09:33:00,
2013-10-06 09:43:00,36.0,25.0,-100.00,ENE,62,6.0,9.0,65,0.00,,,-99.99,0.000000,,2013-10-06 09:43:00,
2013-10-06 09:53:00,36.0,25.0,-100.00,ENE,62,6.0,9.0,65,0.00,,,-99.99,0.000000,,2013-10-06 09:53:00,
2013-10-06 10:23:00,35.0,25.0,-100.00,ENE,64,6.0,9.0,67,0.00,,,0.00,0.000000,,2013-10-06 10:23:00,
2013-10-06 10:32:00,35.0,25.0,-100.00,ENE,64,6.0,9.0,67,0.00,,,0.00,0.000000,,2013-10-06 10:32:00,
2013-10-06 10:42:00,35.0,25.0,-100.00,ENE,64,6.0,9.0,67,0.00,,,0.00,0.000000,,2013-10-06 10:42:00,
2013-10-06 10:53:00,35.0,25.0,-100.00,ENE,64,6.0,9.0,67,0.00,,,0.00,0.000000,,2013-10-06 10:53:00,
2013-10-06 11:21:00,36.0,26.0,-100.00,NE,54,7.0,9.0,67,0.00,,,0.00,0.000000,,2013-10-06 11:21:00,
2013-10-06 11:33:00,36.0,26.0,-100.00,NE,54,7.0,9.0,67,0.00,,,0.00,0.000000,,2013-10-06 11:33:00,
2013-10-06 11:42:00,36.0,26.0,-100.00,NE,54,7.0,9.0,67,0.00,,,0.00,0.000000,,2013-10-06 11:42:00,
2013-10-06 11:52:00,36.0,26.0,-100.00,NE,54,7.0,9.0,67,0.00,,,0.00,0.000000,,2013-10-06 11:52:00,
2013-10-06 12:22:00,33.0,25.0,-100.00,NE,54,6.0,9.0,73,0.00,,,0.00,0.000000,,2013-10-06 12:22:00,
2013-10-06 12:32:00,33.0,25.0,-100.00,NE,54,6.0,9.0,73,0.00,,,0.00,0.000000,,2013-10-06 12:32:00,
2013-10-06 12:42:00,33.0,25.0,-100.00,NE,54,6.0,9.0,73,0.00,,,0.00,0.000000,,2013-10-06 12:42:00,
2013-10-06 12:52:00,33.0,25.0,-100.00,NE,54,6.0,9.0,73,0.00,,,0.00,0.000000,,2013-10-06 12:52:00,
2013-10-06 13:21:00,32.0,26.0,-100.00,ENE,66,6.0,9.0,77,0.00,,,0.00,0.000000,,2013-10-06 13:21:00,
2013-10-06 13:32:00,32.0,26.0,-100.00,ENE,66,6.0,9.0,77,0.00,,,0.00,0.000000,,2013-10-06 13:32:00,
2013-10-06 13:42:00,32.0,26.0,-100.00,ENE,66,6.0,9.0,77,0.00,,,0.00,0.000000,,2013-10-06 13:42:00,
2013-10-06 13:52:00,32.0,26.0,-100.00,ENE,66,6.0,9.0,77,0.00,,,0.00,0.000000,,2013-10-06 13:52:00,
2013-10-06 14:22:00,30.0,25.0,-100.00,ENE,63,7.0,9.0,81,0.00,,,0.00,0.000000,,2013-10-06 14:22:00,
2013-10-06 14:32:00,30.0,25.0,-100.00,ENE,63,7.0,9.0,81,0.00,,,0.00,0.000000,,2013-10-06 14:32:00,
2013-10-06 14:42:00,30.0,25.0,-100.00,ENE,63,7.0,9.0,81,0.00,,,0.00,0.000000,,2013-10-06 14:42:00,
2013-10-06 14:52:00,30.0,25.0,-100.00,ENE,63,7.0,9.0,81,0.00,,,0.00,0.000000,,2013-10-06 14:52:00,
2013-10-06 15:22:00,30.0,25.0,-100.00,ENE,72,5.0,10.0,83,0.00,,,0.00,11.000000,,2013-10-06 15:22:00,
2013-10-06 15:34:00,30.0,25.0,-100.00,ENE,72,5.0,10.0,83,0.00,,,0.00,11.000000,,2013-10-06 15:34:00,
2013-10-06 15:43:00,30.0,25.0,-100.00,ENE,72,5.0,10.0,83,0.00,,,0.00,11.000000,,2013-10-06 15:43:00,
2013-10-06 15:53:00,30.0,25.0,-100.00,ENE,72,5.0,10.0,83,0.00,,,0.00,11.000000,,2013-10-06 15:53:00,
2013-10-06 16:23:00,39.0,27.0,-100.00,East,80,4.0,8.0,63,0.00,,,0.00,160.000000,,2013-10-06 16:23:00,
2013-10-06 16:33:00,39.0,27.0,-100.00,East,80,4.0,8.0,63,0.00,,,0.00,160.000000,,2013-10-06 16:33:00,
2013-10-06 16:42:00,39.0,27.0,-100.00,East,80,4.0,8.0,63,0.00,,,0.00,160.000000,,2013-10-06 16:42:00,
2013-10-06 16:53:00,39.0,27.0,-100.00,East,80,4.0,8.0,63,0.00,,,0.00,160.000000,,2013-10-06 16:53:00,
2013-10-06 17:42:00,48.0,30.0,-100.00,ENE,70,3.0,5.0,49,0.00,,,0.00,407.000000,,2013-10-06 17:42:00,
2013-10-06 17:52:00,48.0,30.0,-100.00,ENE,70,3.0,5.0,49,0.00,,,0.00,407.000000,,2013-10-06 17:52:00,
2013-10-06 18:21:00,54.0,28.0,-100.00,South,182,2.0,5.0,37,0.00,,,0.00,478.000000,,2013-10-06 18:21:00,
2013-10-06 18:32:00,54.0,28.0,-100.00,South,182,2.0,5.0,37,0.00,,,0.00,478.000000,,2013-10-06 18:32:00,
2013-10-06 18:42:00,54.0,28.0,-100.00,South,182,2.0,5.0,37,0.00,,,0.00,478.000000,,2013-10-06 18:42:00,
2013-10-06 18:52:00,54.0,28.0,-100.00,South,182,2.0,5.0,37,0.00,,,0.00,478.000000,,2013-10-06 18:52:00,
2013-10-06 19:22:00,60.0,28.0,-100.00,WSW,249,5.0,10.0,30,0.00,,,0.00,638.000000,,2013-10-06 19:22:00,
2013-10-06 19:32:00,60.0,28.0,-100.00,WSW,249,5.0,10.0,30,0.00,,,0.00,638.000000,,2013-10-06 19:32:00,
2013-10-06 19:42:00,60.0,28.0,-100.00,WSW,249,5.0,10.0,30,0.00,,,0.00,638.000000,,2013-10-06 19:42:00,
2013-10-06 19:52:00,60.0,28.0,-100.00,WSW,249,5.0,10.0,30,0.00,,,0.00,638.000000,,2013-10-06 19:52:00,
2013-10-06 20:22:00,65.0,27.0,-100.00,SSW,210,6.0,11.0,24,0.00,,,0.00,806.000000,,2013-10-06 20:22:00,
2013-10-06 20:32:00,65.0,27.0,-100.00,SSW,210,6.0,11.0,24,0.00,,,0.00,806.000000,,2013-10-06 20:32:00,
2013-10-06 20:42:00,65.0,27.0,-100.00,SSW,210,6.0,11.0,24,0.00,,,0.00,806.000000,,2013-10-06 20:42:00,
2013-10-06 20:52:00,65.0,27.0,-100.00,SSW,210,6.0,11.0,24,0.00,,,0.00,806.000000,,2013-10-06 20:52:00,
2013-10-06 21:22:00,69.0,29.0,-100.00,SSW,196,6.0,13.0,22,0.00,,,0.00,814.000000,,2013-10-06 21:22:00,
2013-10-06 21:34:00,69.0,29.0,-100.00,SSW,196,6.0,13.0,22,0.00,,,0.00,814.000000,,2013-10-06 21:34:00,
2013-10-06 21:44:00,69.0,29.0,-100.00,SSW,196,6.0,13.0,22,0.00,,,0.00,814.000000,,2013-10-06 21:44:00,
2013-10-06 21:54:00,69.0,29.0,-100.00,SSW,196,6.0,13.0,22,0.00,,,0.00,814.000000,,2013-10-06 21:54:00,
2013-10-06 22:24:00,71.0,28.0,-100.00,SSW,194,6.0,15.0,20,0.00,,,0.00,752.000000,,2013-10-06 22:24:00,
2013-10-06 22:33:00,71.0,28.0,-100.00,SSW,194,6.0,15.0,20,0.00,,,0.00,752.000000,,2013-10-06 22:33:00,
2013-10-06 22:42:00,71.0,28.0,-100.00,SSW,194,6.0,15.0,20,0.00,,,0.00,752.000000,,2013-10-06 22:42:00,
2013-10-06 22:53:00,71.0,28.0,-100.00,SSW,194,6.0,15.0,20,0.00,,,0.00,752.000000,,2013-10-06 22:53:00,
2013-10-06 23:22:00,73.0,26.0,-100.00,SSW,193,6.0,15.0,17,0.00,,,0.00,631.000000,,2013-10-06 23:22:00,
2013-10-06 23:34:00,73.0,26.0,-100.00,SSW,193,6.0,15.0,17,0.00,,,0.00,631.000000,,2013-10-06 23:34:00,
2013-10-06 23:42:00,73.0,26.0,-100.00,SSW,193,6.0,15.0,17,0.00,,,0.00,631.000000,,2013-10-06 23:42:00,
2013-10-06 23:53:00,73.0,26.0,-100.00,SSW,193,6.0,15.0,17,0.00,,,0.00,631.000000,,2013-10-06 23:53:00,